Time;durP1;ratioP1;P1;durP2;ratioP2;P2;SDS_P1;SDS_P2;PMS_P1;PMS_P2;Temp;Humidity;BMP_temperature;BMP_pressure;BME280_temperature;BME280_humidity;BME280_pressure;Samples;Min_cycle;Max_cycle;Signal;HPM_P1;HPM_P2
2022/06/12 00:01:41;;;;;;;8.23;4.70;;;;;;;;;;4974603;28;20308;-77
2022/06/12 00:04:07;;;;;;;9.43;4.17;;;;;;;;;;4974195;28;20261;-77
2022/06/12 00:06:32;;;;;;;7.10;4.72;;;;;;;;;;4974085;28;20269;-75
2022/06/12 00:08:57;;;;;;;8.03;4.47;;;;;;;;;;4974747;28;20034;-77
2022/06/12 00:11:27;;;;;;;7.87;4.50;;;;;;;;;;4974275;28;20267;-76
2022/06/12 00:13:56;;;;;;;9.73;4.20;;;;;;;;;;4973356;28;20714;-76
2022/06/12 00:16:22;;;;;;;6.55;4.18;;;;;;;;;;4972782;28;20042;-76
2022/06/12 00:18:47;;;;;;;7.20;4.60;;;;;;;;;;4974288;28;20571;-76
2022/06/12 00:21:13;;;;;;;8.95;4.55;;;;;;;;;;4973845;28;20038;-76
2022/06/12 00:23:52;;;;;;;6.88;4.75;;;;;;;;;;4973826;28;20476;-76
2022/06/12 00:26:30;;;;;;;7.65;4.40;;;;;;;;;;4973841;28;20046;-76
2022/06/12 00:29:01;;;;;;;8.38;4.55;;;;;;;;;;4974289;28;20023;-75
2022/06/12 00:31:29;;;;;;;9.68;4.10;;;;;;;;;;4974112;28;20031;-75
2022/06/12 00:33:54;;;;;;;12.13;4.43;;;;;;;;;;4974020;28;20035;-76
2022/06/12 00:36:20;;;;;;;5.97;4.32;;;;;;;;;;4973855;28;20038;-76
2022/06/12 00:38:45;;;;;;;7.95;4.40;;;;;;;;;;4974125;28;20026;-76
2022/06/12 00:41:10;;;;;;;7.28;4.57;;;;;;;;;;4973882;28;20034;-76
2022/06/12 00:43:37;;;;;;;6.97;4.40;;;;;;;;;;4974048;28;20037;-77
2022/06/12 00:46:03;;;;;;;7.03;4.55;;;;;;;;;;4956588;28;20268;-76
2022/06/12 00:48:32;;;;;;;6.32;3.97;;;;;;;;;;4974001;28;20050;-75
2022/06/12 00:51:02;;;;;;;8.80;4.20;;;;;;;;;;4973710;28;20448;-76
2022/06/12 00:53:37;;;;;;;6.22;4.43;;;;;;;;;;4975690;28;20038;-76
2022/06/12 00:56:09;;;;;;;6.93;4.22;;;;;;;;;;4977251;28;20492;-75
2022/06/12 00:58:39;;;;;;;7.07;4.50;;;;;;;;;;4977223;28;20027;-76
2022/06/12 01:01:10;;;;;;;7.00;4.30;;;;;;;;;;4977079;28;20084;-74
2022/06/12 01:06:33;;;;;;;6.35;4.30;;;;;;;;;;4977171;28;20500;-75
2022/06/12 01:06:36;;;;;;;8.35;4.80;;;;;;;;;;4976962;28;20396;-76
2022/06/12 01:09:06;;;;;;;8.27;4.75;;;;;;;;;;4959728;28;20034;-76
2022/06/12 01:11:34;;;;;;;8.35;5.20;;;;;;;;;;4977186;28;20054;-76
2022/06/12 01:13:59;;;;;;;5.75;4.35;;;;;;;;;;4959675;28;20555;-76
2022/06/12 01:16:25;;;;;;;7.63;4.85;;;;;;;;;;4977258;28;20134;-75
2022/06/12 01:18:53;;;;;;;6.40;4.82;;;;;;;;;;4977000;28;20018;-77
2022/06/12 01:21:42;;;;;;;8.43;4.88;;;;;;;;;;4976907;28;20480;-76
2022/06/12 01:24:22;;;;;;;7.40;4.90;;;;;;;;;;4976808;28;20027;-76
2022/06/12 01:27:26;;;;;;;6.07;4.15;;;;;;;;;;4976812;28;20118;-76
2022/06/12 01:30:08;;;;;;;10.98;4.85;;;;;;;;;;4961586;28;20464;-76
2022/06/12 01:32:42;;;;;;;7.28;4.78;;;;;;;;;;4976732;28;20540;-75
2022/06/12 01:35:35;;;;;;;6.85;4.35;;;;;;;;;;4976970;28;20035;-75
2022/06/12 01:38:14;;;;;;;7.80;4.60;;;;;;;;;;4959368;28;20034;-77
2022/06/12 01:40:51;;;;;;;7.65;4.78;;;;;;;;;;4976564;28;20118;-75
2022/06/12 01:43:19;;;;;;;11.75;4.70;;;;;;;;;;4977327;28;20065;-76
2022/06/12 01:45:53;;;;;;;7.25;4.55;;;;;;;;;;4976513;28;20082;-76
2022/06/12 01:48:33;;;;;;;6.65;4.35;;;;;;;;;;4976354;28;20074;-76
2022/06/12 01:51:14;;;;;;;6.40;4.32;;;;;;;;;;4976966;28;20031;-75
2022/06/12 01:53:59;;;;;;;6.70;4.35;;;;;;;;;;4955586;28;20031;-75
2022/06/12 01:56:44;;;;;;;7.10;4.70;;;;;;;;;;4957050;28;20532;-76
2022/06/12 01:59:19;;;;;;;8.70;3.97;;;;;;;;;;4957237;28;20027;-75
2022/06/12 02:01:54;;;;;;;9.20;4.63;;;;;;;;;;4956964;28;20030;-76
2022/06/12 02:04:51;;;;;;;5.75;3.90;;;;;;;;;;4956059;28;20024;-76
2022/06/12 02:07:30;;;;;;;7.40;4.45;;;;;;;;;;4936764;28;20047;-76
2022/06/12 02:10:01;;;;;;;9.20;4.30;;;;;;;;;;4957285;28;20450;-76
2022/06/12 02:15:23;;;;;;;7.65;4.38;;;;;;;;;;4957157;29;20114;-75
2022/06/12 02:17:58;;;;;;;7.55;3.90;;;;;;;;;;4956622;28;20034;-76
2022/06/12 02:20:31;;;;;;;5.28;3.75;;;;;;;;;;4956409;28;20043;-76
2022/06/12 02:22:57;;;;;;;4.70;3.73;;;;;;;;;;4956733;28;20086;-75
2022/06/12 02:25:29;;;;;;;10.80;4.38;;;;;;;;;;4956366;28;20480;-76
2022/06/12 02:28:11;;;;;;;5.78;4.47;;;;;;;;;;4956659;28;20034;-76
2022/06/12 02:30:43;;;;;;;5.60;4.22;;;;;;;;;;4956681;28;20128;-75
2022/06/12 02:33:25;;;;;;;6.95;4.40;;;;;;;;;;4956161;28;20074;-75
2022/06/12 02:35:56;;;;;;;8.05;4.32;;;;;;;;;;4956441;28;20034;-75
2022/06/12 02:38:27;;;;;;;6.45;4.20;;;;;;;;;;4956133;28;20398;-75
2022/06/12 02:40:57;;;;;;;9.90;4.25;;;;;;;;;;4956131;29;20050;-76
2022/06/12 02:43:27;;;;;;;4.75;3.80;;;;;;;;;;4955952;28;20070;-75
2022/06/12 02:45:59;;;;;;;8.05;4.40;;;;;;;;;;4970928;28;20118;-76
2022/06/12 02:48:25;;;;;;;8.90;3.85;;;;;;;;;;4955853;28;20531;-76
2022/06/12 02:51:08;;;;;;;6.22;3.88;;;;;;;;;;4956156;28;20031;-76
2022/06/12 02:53:50;;;;;;;6.47;4.22;;;;;;;;;;4967227;28;20381;-77
2022/06/12 02:56:43;;;;;;;7.13;4.10;;;;;;;;;;4975423;28;20082;-76
2022/06/12 02:59:23;;;;;;;7.00;4.13;;;;;;;;;;4975106;28;20109;-77
2022/06/12 03:01:57;;;;;;;6.15;3.95;;;;;;;;;;4975204;28;20500;-76
2022/06/12 03:04:35;;;;;;;8.43;4.22;;;;;;;;;;4975084;28;20031;-76
2022/06/12 03:07:00;;;;;;;7.63;4.05;;;;;;;;;;4975286;28;20365;-76
2022/06/12 03:09:25;;;;;;;8.95;4.57;;;;;;;;;;4958891;28;20025;-77
2022/06/12 03:11:51;;;;;;;7.72;3.90;;;;;;;;;;4975840;28;20459;-77
2022/06/12 03:14:20;;;;;;;7.13;4.18;;;;;;;;;;4974729;28;20027;-75
2022/06/12 03:16:45;;;;;;;5.65;4.07;;;;;;;;;;4973837;28;20038;-76
2022/06/12 03:19:31;;;;;;;5.50;4.05;;;;;;;;;;4974929;28;20026;-76
2022/06/12 03:22:20;;;;;;;5.85;4.03;;;;;;;;;;4974775;28;20026;-76
2022/06/12 03:24:52;;;;;;;5.45;4.00;;;;;;;;;;4974998;28;20551;-75
2022/06/12 03:27:55;;;;;;;5.97;3.88;;;;;;;;;;4957310;28;20031;-77
2022/06/12 03:30:31;;;;;;;5.88;3.90;;;;;;;;;;4975172;28;20401;-75
2022/06/12 03:33:15;;;;;;;9.57;4.25;;;;;;;;;;4957108;28;20026;-76
2022/06/12 03:35:52;;;;;;;7.45;4.13;;;;;;;;;;4974755;28;20026;-76
2022/06/12 03:38:32;;;;;;;5.78;4.13;;;;;;;;;;4974728;28;20483;-77
2022/06/12 03:41:13;;;;;;;6.60;3.90;;;;;;;;;;4974336;28;20027;-76
2022/06/12 03:43:59;;;;;;;5.13;3.92;;;;;;;;;;4974649;28;20027;-77
2022/06/12 03:46:24;;;;;;;4.65;3.85;;;;;;;;;;4974573;28;20034;-76
2022/06/12 03:49:07;;;;;;;6.47;4.10;;;;;;;;;;4974649;28;20026;-76
2022/06/12 03:51:51;;;;;;;6.30;3.72;;;;;;;;;;4974334;28;20022;-75
2022/06/12 03:54:40;;;;;;;8.23;4.07;;;;;;;;;;4974481;28;20065;-75
2022/06/12 04:00:16;;;;;;;5.00;4.00;;;;;;;;;;4975452;28;20034;-75
2022/06/12 04:02:43;;;;;;;7.97;3.85;;;;;;;;;;4974789;28;20073;-75
2022/06/12 04:05:14;;;;;;;6.03;3.92;;;;;;;;;;4974914;28;20037;-74
2022/06/12 04:07:46;;;;;;;10.00;4.25;;;;;;;;;;4975023;28;20023;-75
2022/06/12 04:10:17;;;;;;;8.43;4.15;;;;;;;;;;4974395;28;20027;-76
2022/06/12 04:12:43;;;;;;;5.68;3.90;;;;;;;;;;4974584;28;20027;-73
2022/06/12 04:15:22;;;;;;;5.90;3.88;;;;;;;;;;4974495;28;20110;-74
2022/06/12 04:17:47;;;;;;;5.22;3.90;;;;;;;;;;4975064;28;20085;-74
2022/06/12 04:20:17;;;;;;;6.13;4.00;;;;;;;;;;4975607;28;20431;-75
2022/06/12 04:22:46;;;;;;;9.40;4.07;;;;;;;;;;4974883;28;20034;-74
2022/06/12 04:25:27;;;;;;;5.70;3.92;;;;;;;;;;4958820;28;20050;-75
2022/06/12 04:27:53;;;;;;;6.57;4.03;;;;;;;;;;4976350;28;20023;-76
2022/06/12 04:30:31;;;;;;;5.70;4.00;;;;;;;;;;4978123;28;20608;-76
2022/06/12 04:33:19;;;;;;;4.20;3.80;;;;;;;;;;4977600;28;20031;-75
2022/06/12 04:35:50;;;;;;;5.40;3.70;;;;;;;;;;4977808;28;20031;-75
2022/06/12 04:38:15;;;;;;;6.80;3.55;;;;;;;;;;4960866;28;20061;-76
2022/06/12 04:40:41;;;;;;;6.75;3.80;;;;;;;;;;4977486;28;20484;-75
2022/06/12 04:43:06;;;;;;;6.70;3.60;;;;;;;;;;4977509;28;20038;-74
2022/06/12 04:45:32;;;;;;;8.50;3.58;;;;;;;;;;4977523;28;20252;-76
2022/06/12 04:47:58;;;;;;;6.65;3.78;;;;;;;;;;4977452;28;20085;-75
2022/06/12 04:50:23;;;;;;;7.10;3.63;;;;;;;;;;4977343;28;20031;-75
2022/06/12 04:52:48;;;;;;;7.30;3.30;;;;;;;;;;4977148;28;20026;-75
2022/06/12 04:55:14;;;;;;;4.13;3.33;;;;;;;;;;4977656;28;20356;-76
2022/06/12 04:57:39;;;;;;;6.65;3.50;;;;;;;;;;4959865;28;20260;-77
2022/06/12 05:00:09;;;;;;;7.50;4.07;;;;;;;;;;4977438;28;20035;-76
2022/06/12 05:02:34;;;;;;;4.28;3.05;;;;;;;;;;4977037;28;20257;-76
2022/06/12 05:04:59;;;;;;;8.38;3.63;;;;;;;;;;4959944;28;20399;-76
2022/06/12 05:07:25;;;;;;;5.72;3.50;;;;;;;;;;4977371;28;20484;-76
2022/06/12 05:09:50;;;;;;;6.07;3.40;;;;;;;;;;4977022;28;20477;-75
2022/06/12 05:12:15;;;;;;;4.47;3.13;;;;;;;;;;4976963;28;20019;-76
2022/06/12 05:14:42;;;;;;;5.67;3.20;;;;;;;;;;4977399;28;20034;-76
2022/06/12 05:17:12;;;;;;;5.60;3.50;;;;;;;;;;4959506;28;20260;-76
2022/06/12 05:19:40;;;;;;;5.60;3.22;;;;;;;;;;4977457;28;20030;-76
2022/06/12 05:22:09;;;;;;;6.90;3.50;;;;;;;;;;4976811;28;20027;-76
2022/06/12 05:24:35;;;;;;;4.57;3.05;;;;;;;;;;4977075;28;20547;-77
2022/06/12 05:27:04;;;;;;;6.10;3.20;;;;;;;;;;4976778;28;20023;-77
2022/06/12 05:29:35;;;;;;;7.90;3.13;;;;;;;;;;4976701;28;20027;-76
2022/06/12 05:32:02;;;;;;;4.18;3.20;;;;;;;;;;4976855;28;20077;-75
2022/06/12 05:34:28;;;;;;;7.40;3.40;;;;;;;;;;4976679;28;20030;-75
2022/06/12 05:36:58;;;;;;;3.72;2.70;;;;;;;;;;4976586;28;20094;-75
2022/06/12 05:39:24;;;;;;;7.05;2.95;;;;;;;;;;4975898;28;20031;-75
2022/06/12 05:41:50;;;;;;;5.57;3.08;;;;;;;;;;4976426;28;20031;-75
2022/06/12 05:44:16;;;;;;;8.02;3.10;;;;;;;;;;4958989;28;20031;-75
2022/06/12 05:46:42;;;;;;;5.72;3.20;;;;;;;;;;4976531;28;20029;-76
2022/06/12 05:49:07;;;;;;;5.43;2.92;;;;;;;;;;4976376;28;20039;-76
2022/06/12 05:51:33;;;;;;;5.32;3.00;;;;;;;;;;4976614;28;20033;-75
2022/06/12 05:53:59;;;;;;;7.00;3.10;;;;;;;;;;4976372;28;20034;-75
2022/06/12 05:56:26;;;;;;;3.88;3.10;;;;;;;;;;4976237;28;20054;-76
2022/06/12 05:58:52;;;;;;;6.55;3.00;;;;;;;;;;4976530;28;20026;-76
2022/06/12 06:01:19;;;;;;;3.85;2.85;;;;;;;;;;4958824;28;20507;-75
2022/06/12 06:03:44;;;;;;;6.47;2.90;;;;;;;;;;4958644;28;20031;-75
2022/06/12 06:06:14;;;;;;;6.72;2.80;;;;;;;;;;4976099;28;20019;-76
2022/06/12 06:08:40;;;;;;;4.38;2.70;;;;;;;;;;4976052;28;20031;-75
2022/06/12 06:11:06;;;;;;;5.03;2.78;;;;;;;;;;4976153;28;20018;-75
2022/06/12 06:13:32;;;;;;;4.78;2.70;;;;;;;;;;4958511;28;20030;-76
2022/06/12 06:15:57;;;;;;;8.98;2.92;;;;;;;;;;4975837;28;20035;-75
2022/06/12 06:18:22;;;;;;;4.47;2.83;;;;;;;;;;4959262;28;20022;-76
2022/06/12 06:20:51;;;;;;;5.67;2.47;;;;;;;;;;4975907;28;20284;-76
2022/06/12 06:23:16;;;;;;;3.92;2.38;;;;;;;;;;4975930;28;20260;-76
2022/06/12 06:25:42;;;;;;;4.80;2.78;;;;;;;;;;4975966;28;20428;-76
2022/06/12 06:28:09;;;;;;;8.25;2.60;;;;;;;;;;4975752;28;20034;-76
2022/06/12 06:30:36;;;;;;;4.32;2.78;;;;;;;;;;4975602;28;20026;-76
2022/06/12 06:33:02;;;;;;;5.75;2.80;;;;;;;;;;4975527;28;20559;-75
2022/06/12 06:35:27;;;;;;;7.55;3.75;;;;;;;;;;4975489;28;20089;-76
2022/06/12 06:37:53;;;;;;;6.82;3.70;;;;;;;;;;4975493;28;20023;-75
2022/06/12 06:40:21;;;;;;;4.32;3.20;;;;;;;;;;4975443;28;20477;-77
2022/06/12 06:42:46;;;;;;;5.75;2.72;;;;;;;;;;4975607;28;20027;-76
2022/06/12 06:47:58;;;;;;;5.60;2.72;;;;;;;;;;4975729;28;20078;-76
2022/06/12 06:50:23;;;;;;;7.53;2.97;;;;;;;;;;4974842;28;20027;-77
2022/06/12 06:52:49;;;;;;;5.10;2.83;;;;;;;;;;4954344;29;20035;-77
2022/06/12 06:55:14;;;;;;;4.63;2.95;;;;;;;;;;4956300;28;20031;-76
2022/06/12 06:57:42;;;;;;;5.88;2.80;;;;;;;;;;4956222;28;20058;-76
2022/06/12 07:00:12;;;;;;;8.57;3.10;;;;;;;;;;4955748;28;20035;-77
2022/06/12 07:02:39;;;;;;;3.67;2.35;;;;;;;;;;4955855;28;20473;-77
2022/06/12 07:05:04;;;;;;;4.57;2.47;;;;;;;;;;4954535;29;20027;-77
2022/06/12 07:07:30;;;;;;;3.25;2.40;;;;;;;;;;4955763;28;20030;-77
2022/06/12 07:09:55;;;;;;;4.03;2.47;;;;;;;;;;4956092;28;20383;-76
2022/06/12 07:12:20;;;;;;;6.03;2.70;;;;;;;;;;4955618;28;20378;-77
2022/06/12 07:14:45;;;;;;;4.17;2.40;;;;;;;;;;4955757;28;20351;-76
2022/06/12 07:17:11;;;;;;;8.40;2.30;;;;;;;;;;4955760;28;20031;-76
2022/06/12 07:19:38;;;;;;;4.82;2.30;;;;;;;;;;4954306;29;20329;-77
2022/06/12 07:22:04;;;;;;;4.85;2.38;;;;;;;;;;4955875;28;20023;-76
2022/06/12 07:24:30;;;;;;;3.90;2.63;;;;;;;;;;4955317;28;20046;-77
2022/06/12 07:26:55;;;;;;;4.05;2.25;;;;;;;;;;4954224;29;20019;-76
2022/06/12 07:29:21;;;;;;;4.80;2.33;;;;;;;;;;4955760;28;20051;-77
2022/06/12 07:31:47;;;;;;;3.03;2.17;;;;;;;;;;4970324;28;20786;-76
2022/06/12 07:34:13;;;;;;;4.55;2.30;;;;;;;;;;4955294;28;20031;-77
2022/06/12 07:36:40;;;;;;;5.03;2.47;;;;;;;;;;4955404;28;20449;-76
2022/06/12 07:39:11;;;;;;;7.75;2.50;;;;;;;;;;4955248;28;20485;-76
2022/06/12 07:41:36;;;;;;;4.20;2.42;;;;;;;;;;4954312;29;20042;-77
2022/06/12 07:44:03;;;;;;;5.90;2.67;;;;;;;;;;4955412;28;20031;-76
2022/06/12 07:46:28;;;;;;;6.93;2.53;;;;;;;;;;4955197;28;20023;-76
2022/06/12 07:48:54;;;;;;;4.22;2.28;;;;;;;;;;4955267;28;20110;-76
2022/06/12 07:51:21;;;;;;;3.70;2.25;;;;;;;;;;4955177;28;20490;-76
2022/06/12 07:53:47;;;;;;;7.45;2.45;;;;;;;;;;4968215;28;20452;-77
2022/06/12 07:56:14;;;;;;;5.43;2.30;;;;;;;;;;4957469;28;20027;-76
2022/06/12 07:58:41;;;;;;;6.80;2.70;;;;;;;;;;4974654;28;20034;-75
2022/06/12 08:01:08;;;;;;;6.28;2.50;;;;;;;;;;4974405;28;20523;-76
2022/06/12 08:03:34;;;;;;;4.45;2.65;;;;;;;;;;4977703;28;20039;-77
2022/06/12 08:06:00;;;;;;;3.20;2.22;;;;;;;;;;4978274;28;20369;-76
2022/06/12 08:08:25;;;;;;;4.60;2.70;;;;;;;;;;4978173;28;20045;-76
2022/06/12 08:10:50;;;;;;;5.03;2.53;;;;;;;;;;4960817;28;20110;-76
2022/06/12 08:13:17;;;;;;;5.60;2.25;;;;;;;;;;4978372;28;20018;-78
2022/06/12 08:15:45;;;;;;;7.10;2.28;;;;;;;;;;4978405;28;20026;-77
2022/06/12 08:18:11;;;;;;;3.80;2.50;;;;;;;;;;4978092;28;20034;-76
2022/06/12 08:20:40;;;;;;;3.13;2.22;;;;;;;;;;4977883;28;20698;-75
2022/06/12 08:23:26;;;;;;;6.13;2.25;;;;;;;;;;4977909;28;20069;-75
2022/06/12 08:25:53;;;;;;;3.60;2.55;;;;;;;;;;4960406;28;20053;-76
2022/06/12 08:28:19;;;;;;;5.63;2.03;;;;;;;;;;4977830;28;20027;-77
2022/06/12 08:30:44;;;;;;;5.68;2.10;;;;;;;;;;4978197;28;20030;-76
2022/06/12 08:33:10;;;;;;;4.20;2.00;;;;;;;;;;4977655;28;20030;-76
2022/06/12 08:35:36;;;;;;;3.10;2.08;;;;;;;;;;4978242;28;20031;-76
2022/06/12 08:38:03;;;;;;;2.75;2.05;;;;;;;;;;4977887;28;20051;-77
2022/06/12 08:40:46;;;;;;;3.65;2.00;;;;;;;;;;4977909;28;20053;-76
2022/06/12 08:43:29;;;;;;;;;;;;;;;;;;4977813;28;20054;-76
2022/06/12 08:45:58;;;;;;;5.07;1.98;;;;;;;;;;4977640;28;19917;-77
2022/06/12 08:48:55;;;;;;;3.63;1.70;;;;;;;;;;4977443;28;20049;-76
2022/06/12 08:51:49;;;;;;;4.03;2.15;;;;;;;;;;4977448;28;20492;-76
2022/06/12 08:54:20;;;;;;;5.47;1.85;;;;;;;;;;4977207;28;20034;-75
2022/06/12 08:56:48;;;;;;;2.70;1.80;;;;;;;;;;4977465;28;20035;-77
2022/06/12 08:59:42;;;;;;;7.75;1.77;;;;;;;;;;4977563;28;20489;-76
2022/06/12 09:02:26;;;;;;;4.93;1.92;;;;;;;;;;4960221;28;20034;-77
2022/06/12 09:04:51;;;;;;;2.45;1.60;;;;;;;;;;4960009;28;20035;-76
2022/06/12 09:07:40;;;;;;;4.75;1.65;;;;;;;;;;4977486;28;20015;-76
2022/06/12 09:10:19;;;;;;;2.95;1.60;;;;;;;;;;4977726;28;20085;-77
2022/06/12 09:12:51;;;;;;;4.68;1.70;;;;;;;;;;4977694;28;20026;-76
2022/06/12 09:15:32;;;;;;;3.38;1.55;;;;;;;;;;4977129;28;20035;-76
2022/06/12 09:18:25;;;;;;;3.00;1.60;;;;;;;;;;4976992;28;20027;-77
2022/06/12 09:21:05;;;;;;;3.20;1.80;;;;;;;;;;4977851;28;20089;-77
2022/06/12 09:23:45;;;;;;;4.85;1.73;;;;;;;;;;4959461;28;20038;-77
2022/06/12 09:26:17;;;;;;;4.65;1.70;;;;;;;;;;4977218;28;20030;-76
2022/06/12 09:29:05;;;;;;;2.47;1.50;;;;;;;;;;4976759;28;20029;-76
2022/06/12 09:31:43;;;;;;;3.42;1.63;;;;;;;;;;4971409;28;20042;-77
2022/06/12 09:34:35;;;;;;;2.65;1.45;;;;;;;;;;4976920;28;20034;-76
2022/06/12 09:40:37;;;;;;;3.05;1.40;;;;;;;;;;4976827;28;20026;-76
2022/06/12 09:43:46;;;;;;;3.30;1.45;;;;;;;;;;4976476;28;20046;-76
2022/06/12 09:46:19;;;;;;;3.38;1.20;;;;;;;;;;4952213;28;20031;-76
2022/06/12 09:49:13;;;;;;;2.92;1.35;;;;;;;;;;4976792;28;20030;-76
2022/06/12 09:51:44;;;;;;;1.38;1.20;;;;;;;;;;4976855;28;20026;-76
2022/06/12 09:54:39;;;;;;;4.10;1.50;;;;;;;;;;4976134;28;20026;-77
2022/06/12 09:57:38;;;;;;;4.85;1.33;;;;;;;;;;4959530;28;20026;-76
2022/06/12 10:00:09;;;;;;;2.63;1.33;;;;;;;;;;4976422;28;20030;-76
2022/06/12 10:03:02;;;;;;;2.47;1.23;;;;;;;;;;4976490;28;20031;-76
2022/06/12 10:06:06;;;;;;;3.23;1.50;;;;;;;;;;4976675;28;20085;-77
2022/06/12 10:08:38;;;;;;;2.50;1.40;;;;;;;;;;4974342;28;20129;-77
2022/06/12 10:11:13;;;;;;;3.50;1.42;;;;;;;;;;4976450;28;20030;-76
2022/06/12 10:13:49;;;;;;;2.47;1.27;;;;;;;;;;4976626;28;20030;-77
2022/06/12 10:16:20;;;;;;;4.13;1.60;;;;;;;;;;4976739;28;20035;-76
2022/06/12 10:18:54;;;;;;;5.82;1.42;;;;;;;;;;4976371;28;20035;-77
2022/06/12 10:21:22;;;;;;;3.38;1.40;;;;;;;;;;4976019;28;20038;-76
2022/06/12 10:23:48;;;;;;;3.22;1.40;;;;;;;;;;4958254;28;20429;-77
2022/06/12 10:26:24;;;;;;;3.03;1.45;;;;;;;;;;4975127;28;20035;-77
2022/06/12 10:29:03;;;;;;;3.85;1.40;;;;;;;;;;4976321;28;20031;-76
2022/06/12 10:31:33;;;;;;;3.65;1.48;;;;;;;;;;4975742;28;20023;-75
2022/06/12 10:34:15;;;;;;;4.05;1.30;;;;;;;;;;4958067;28;20381;-73
2022/06/12 10:36:40;;;;;;;3.20;1.60;;;;;;;;;;4975561;28;20492;-77
2022/06/12 10:39:13;;;;;;;3.55;1.40;;;;;;;;;;4958581;28;20077;-76
2022/06/12 10:41:45;;;;;;;3.05;1.48;;;;;;;;;;4975693;28;20035;-76
2022/06/12 10:44:30;;;;;;;3.03;1.25;;;;;;;;;;4975662;28;20039;-77
2022/06/12 10:47:07;;;;;;;3.35;1.40;;;;;;;;;;4958215;28;20481;-77
2022/06/12 10:49:32;;;;;;;1.58;1.30;;;;;;;;;;4975884;28;20035;-76
2022/06/12 10:52:06;;;;;;;4.83;1.40;;;;;;;;;;4975690;28;20023;-77
2022/06/12 10:54:31;;;;;;;1.85;1.10;;;;;;;;;;4975315;28;20261;-77
2022/06/12 10:57:24;;;;;;;2.33;1.30;;;;;;;;;;4975300;28;20113;-76
2022/06/12 11:00:11;;;;;;;3.10;1.33;;;;;;;;;;4975416;28;20102;-77
2022/06/12 11:02:50;;;;;;;2.67;1.48;;;;;;;;;;4975678;28;20444;-79
2022/06/12 11:05:47;;;;;;;4.85;1.40;;;;;;;;;;4975677;28;20491;-77
2022/06/12 11:08:28;;;;;;;1.55;1.27;;;;;;;;;;4975799;28;20027;-77
2022/06/12 11:11:14;;;;;;;2.15;1.40;;;;;;;;;;4975419;28;20027;-78
2022/06/12 11:14:03;;;;;;;2.67;1.10;;;;;;;;;;4974865;28;20026;-77
2022/06/12 11:16:43;;;;;;;1.40;1.10;;;;;;;;;;4975404;28;20027;-77
2022/06/12 11:19:23;;;;;;;3.03;1.25;;;;;;;;;;4975499;28;20545;-78
2022/06/12 11:22:14;;;;;;;3.15;1.55;;;;;;;;;;4975672;28;20038;-77
2022/06/12 11:25:03;;;;;;;2.13;1.40;;;;;;;;;;4975705;28;20109;-79
2022/06/12 11:27:43;;;;;;;1.90;1.35;;;;;;;;;;4961713;28;20035;-77
2022/06/12 11:30:21;;;;;;;3.58;1.58;;;;;;;;;;4975383;28;20023;-78
2022/06/12 11:32:57;;;;;;;2.90;1.25;;;;;;;;;;4974905;28;20027;-77
2022/06/12 11:35:47;;;;;;;5.38;1.55;;;;;;;;;;4975242;28;20022;-77
2022/06/12 11:38:52;;;;;;;9.68;1.88;;;;;;;;;;4974361;28;20033;-76
2022/06/12 11:41:54;;;;;;;8.25;1.90;;;;;;;;;;4941937;28;20504;-78
2022/06/12 11:44:33;;;;;;;4.00;1.80;;;;;;;;;;4975237;28;20035;-78
2022/06/12 11:47:25;;;;;;;5.22;1.88;;;;;;;;;;4975369;28;20038;-77
2022/06/12 11:50:32;;;;;;;4.10;1.80;;;;;;;;;;4976331;28;20030;-77
2022/06/12 11:53:31;;;;;;;2.80;1.65;;;;;;;;;;4994759;28;20042;-76
2022/06/12 11:56:07;;;;;;;2.75;1.67;;;;;;;;;;4993738;28;20556;-76
2022/06/12 11:58:58;;;;;;;3.78;1.80;;;;;;;;;;4994764;28;20043;-77
2022/06/12 12:01:40;;;;;;;4.97;1.65;;;;;;;;;;4981542;28;20039;-76
2022/06/12 12:04:41;;;;;;;3.95;1.85;;;;;;;;;;4991822;28;20057;-76
2022/06/12 12:07:27;;;;;;;4.10;1.80;;;;;;;;;;4991444;28;20051;-76
2022/06/12 12:10:01;;;;;;;2.88;1.70;;;;;;;;;;4992431;28;20019;-76
2022/06/12 12:12:34;;;;;;;5.53;1.70;;;;;;;;;;4989730;28;20473;-77
2022/06/12 12:15:05;;;;;;;5.28;1.85;;;;;;;;;;4989191;28;20030;-77
2022/06/12 12:17:39;;;;;;;3.05;1.70;;;;;;;;;;4971419;28;20025;-77
2022/06/12 12:20:14;;;;;;;3.03;1.75;;;;;;;;;;4983460;28;20031;-76
2022/06/12 12:22:44;;;;;;;3.72;1.88;;;;;;;;;;4974809;28;20476;-77
2022/06/12 12:25:45;;;;;;;3.67;1.83;;;;;;;;;;4974318;28;20035;-76
2022/06/12 12:28:32;;;;;;;3.45;1.75;;;;;;;;;;4960279;28;20041;-77
2022/06/12 12:31:02;;;;;;;4.10;1.98;;;;;;;;;;4956533;28;20041;-76
2022/06/12 12:33:28;;;;;;;4.45;1.88;;;;;;;;;;4973858;28;20150;-77
2022/06/12 12:41:42;;;;;;;3.33;2.00;;;;;;;;;;4974277;28;20511;-77
2022/06/12 12:44:08;;;;;;;3.78;1.95;;;;;;;;;;4973929;28;20030;-76
2022/06/12 12:46:50;;;;;;;6.00;2.20;;;;;;;;;;4973893;28;20030;-77
2022/06/12 12:49:28;;;;;;;3.70;1.88;;;;;;;;;;4975499;28;20423;-77
2022/06/12 12:52:09;;;;;;;4.00;2.00;;;;;;;;;;4977412;28;20085;-76
2022/06/12 12:54:58;;;;;;;7.35;2.38;;;;;;;;;;4940858;29;20038;-77
2022/06/12 12:57:44;;;;;;;5.38;2.08;;;;;;;;;;4958119;29;20038;-76
2022/06/12 13:00:15;;;;;;;3.25;1.90;;;;;;;;;;4958182;29;20471;-78
2022/06/12 13:02:48;;;;;;;3.42;2.00;;;;;;;;;;4940993;29;20512;-78
2022/06/12 13:05:23;;;;;;;6.07;1.88;;;;;;;;;;4940887;29;20078;-77
2022/06/12 13:08:00;;;;;;;4.60;2.05;;;;;;;;;;4957796;29;20086;-77
2022/06/12 13:10:28;;;;;;;3.22;1.90;;;;;;;;;;4958458;29;20027;-76
2022/06/12 13:13:08;;;;;;;3.83;1.80;;;;;;;;;;4957722;29;20444;-76
2022/06/12 13:15:59;;;;;;;4.95;1.98;;;;;;;;;;4957563;29;20493;-77
2022/06/12 13:18:53;;;;;;;5.47;1.92;;;;;;;;;;4957628;29;20074;-77
2022/06/12 13:21:24;;;;;;;3.40;1.95;;;;;;;;;;4957945;29;20031;-75
2022/06/12 13:24:29;;;;;;;4.22;1.80;;;;;;;;;;4957435;29;20027;-76
2022/06/12 13:26:57;;;;;;;5.32;1.90;;;;;;;;;;4957779;29;20023;-75
2022/06/12 13:29:24;;;;;;;6.35;1.83;;;;;;;;;;4957369;29;20082;-77
2022/06/12 13:31:55;;;;;;;3.63;1.70;;;;;;;;;;4957435;29;20027;-76
2022/06/12 13:34:20;;;;;;;3.88;1.60;;;;;;;;;;4957092;29;20097;-77
2022/06/12 13:36:46;;;;;;;2.47;1.80;;;;;;;;;;4957291;29;20484;-75
2022/06/12 13:39:30;;;;;;;4.55;2.10;;;;;;;;;;4957079;29;20264;-76
2022/06/12 13:42:09;;;;;;;3.30;1.80;;;;;;;;;;4957258;29;20027;-76
2022/06/12 13:44:34;;;;;;;4.80;1.90;;;;;;;;;;4939988;29;20051;-77
2022/06/12 13:47:14;;;;;;;2.93;1.80;;;;;;;;;;4957331;29;20114;-77
2022/06/12 13:49:45;;;;;;;4.65;1.80;;;;;;;;;;4957532;29;20033;-76
2022/06/12 13:52:44;;;;;;;11.65;1.80;;;;;;;;;;4957571;28;20397;-77
2022/06/12 13:55:30;;;;;;;3.40;1.70;;;;;;;;;;4970869;28;20107;-77
2022/06/12 13:58:00;;;;;;;3.33;1.80;;;;;;;;;;4976622;28;20414;-77
2022/06/12 14:00:36;;;;;;;3.45;1.55;;;;;;;;;;4975567;28;20023;-77
2022/06/12 14:03:02;;;;;;;4.90;1.88;;;;;;;;;;4976052;28;20027;-76
2022/06/12 14:05:32;;;;;;;3.25;1.60;;;;;;;;;;4975979;28;20039;-76
2022/06/12 14:08:02;;;;;;;5.57;1.52;;;;;;;;;;4976010;28;20066;-77
2022/06/12 14:10:40;;;;;;;2.45;1.50;;;;;;;;;;4975777;28;20030;-77
2022/06/12 14:13:14;;;;;;;6.82;1.80;;;;;;;;;;4975936;28;20110;-77
2022/06/12 14:15:40;;;;;;;;;;;;;;;;;;4976760;28;20107;-76
2022/06/12 14:18:20;;;;;;;2.10;1.50;;;;;;;;;;4975833;28;20339;-77
2022/06/12 14:20:46;;;;;;;3.58;1.88;;;;;;;;;;4976216;28;20033;-76
2022/06/12 14:23:20;;;;;;;2.45;1.50;;;;;;;;;;4975730;28;20042;-76
2022/06/12 14:25:53;;;;;;;6.95;1.40;;;;;;;;;;4975842;28;20506;-75
2022/06/12 14:28:21;;;;;;;2.33;1.50;;;;;;;;;;4975671;28;20043;-75
2022/06/12 14:31:03;;;;;;;2.65;1.67;;;;;;;;;;4975526;28;20033;-76
2022/06/12 14:33:36;;;;;;;3.80;1.50;;;;;;;;;;4975598;28;20110;-76
2022/06/12 14:36:07;;;;;;;2.10;1.52;;;;;;;;;;4976338;28;20042;-77
2022/06/12 14:38:35;;;;;;;2.25;1.48;;;;;;;;;;4975730;28;20034;-76
2022/06/12 14:41:01;;;;;;;3.58;1.67;;;;;;;;;;4975360;28;20035;-76
2022/06/12 14:43:37;;;;;;;5.18;1.63;;;;;;;;;;4975829;28;20077;-77
2022/06/12 14:46:11;;;;;;;4.13;1.30;;;;;;;;;;4958445;28;20394;-78
2022/06/12 14:48:37;;;;;;;2.95;1.50;;;;;;;;;;4958541;28;20143;-79
2022/06/12 14:51:03;;;;;;;5.63;1.50;;;;;;;;;;4975338;28;20461;-76
2022/06/12 14:53:29;;;;;;;3.33;1.70;;;;;;;;;;4975474;28;20268;-76
2022/06/12 14:55:57;;;;;;;5.00;1.70;;;;;;;;;;4975558;28;20037;-76
2022/06/12 14:58:29;;;;;;;2.85;1.40;;;;;;;;;;4959634;28;20169;-76
2022/06/12 15:01:03;;;;;;;2.78;1.50;;;;;;;;;;4975611;28;20023;-74
2022/06/12 15:03:28;;;;;;;4.18;1.50;;;;;;;;;;4974993;28;20498;-75
2022/06/12 15:05:54;;;;;;;2.15;1.50;;;;;;;;;;4974900;28;20113;-74
2022/06/12 15:08:20;;;;;;;3.95;1.45;;;;;;;;;;4974850;28;20083;-74
2022/06/12 15:10:45;;;;;;;3.10;1.45;;;;;;;;;;4957462;28;20026;-76
2022/06/12 15:13:16;;;;;;;1.67;1.37;;;;;;;;;;4975256;28;20030;-76
2022/06/12 15:15:42;;;;;;;5.32;1.27;;;;;;;;;;4958046;28;20340;-76
2022/06/12 15:18:08;;;;;;;3.17;1.40;;;;;;;;;;4974725;28;20484;-77
2022/06/12 15:20:33;;;;;;;2.28;1.23;;;;;;;;;;4974926;28;20041;-75
2022/06/12 15:22:59;;;;;;;6.25;1.50;;;;;;;;;;4974527;28;20081;-74
2022/06/12 15:31:03;;;;;;;2.00;1.35;;;;;;;;;;4974896;28;20543;-77
2022/06/12 15:33:28;;;;;;;2.22;1.30;;;;;;;;;;4975225;28;20043;-77
2022/06/12 15:35:56;;;;;;;2.85;1.50;;;;;;;;;;4974857;28;20029;-76
2022/06/12 15:38:22;;;;;;;5.70;1.40;;;;;;;;;;4974467;28;20472;-76
2022/06/12 15:40:47;;;;;;;3.45;1.30;;;;;;;;;;4974191;28;20042;-77
2022/06/12 15:43:13;;;;;;;2.73;1.43;;;;;;;;;;4974828;28;20365;-77
2022/06/12 15:45:38;;;;;;;2.70;1.40;;;;;;;;;;4974543;28;20447;-77